sensor_id;sensor_type;location;lat;lon;timestamp;P1;durP1;ratioP1;P2;durP2;ratioP2
651;SDS011;310;48.490;9.200;2023-08-20T00:01:38;110.30;;;3.20;;
651;SDS011;310;48.490;9.200;2023-08-20T00:04:04;111.37;;;4.00;;
651;SDS011;310;48.490;9.200;2023-08-20T00:06:30;111.23;;;3.50;;
651;SDS011;310;48.490;9.200;2023-08-20T00:08:56;110.60;;;3.67;;
651;SDS011;310;48.490;9.200;2023-08-20T00:11:21;111.53;;;3.67;;
651;SDS011;310;48.490;9.200;2023-08-20T00:13:47;110.67;;;3.33;;
651;SDS011;310;48.490;9.200;2023-08-20T00:16:12;110.10;;;3.10;;
651;SDS011;310;48.490;9.200;2023-08-20T00:18:38;111.40;;;3.40;;
651;SDS011;310;48.490;9.200;2023-08-20T00:21:04;110.50;;;3.33;;
651;SDS011;310;48.490;9.200;2023-08-20T00:23:31;110.97;;;3.67;;
651;SDS011;310;48.490;9.200;2023-08-20T00:25:57;110.57;;;3.57;;
651;SDS011;310;48.490;9.200;2023-08-20T00:28:22;111.90;;;3.90;;
651;SDS011;310;48.490;9.200;2023-08-20T00:30:48;110.77;;;3.37;;
651;SDS011;310;48.490;9.200;2023-08-20T00:33:14;111.27;;;3.53;;
651;SDS011;310;48.490;9.200;2023-08-20T00:35:40;110.83;;;3.43;;
651;SDS011;310;48.490;9.200;2023-08-20T00:38:05;111.20;;;3.53;;
651;SDS011;310;48.490;9.200;2023-08-20T00:40:31;110.57;;;3.10;;
651;SDS011;310;48.490;9.200;2023-08-20T00:42:57;115.60;;;4.33;;
651;SDS011;310;48.490;9.200;2023-08-20T00:45:23;112.10;;;3.70;;
651;SDS011;310;48.490;9.200;2023-08-20T00:47:49;111.40;;;3.87;;
651;SDS011;310;48.490;9.200;2023-08-20T00:50:15;111.40;;;3.67;;
651;SDS011;310;48.490;9.200;2023-08-20T00:52:41;111.50;;;3.70;;
651;SDS011;310;48.490;9.200;2023-08-20T00:55:11;111.27;;;4.00;;
651;SDS011;310;48.490;9.200;2023-08-20T00:57:38;111.97;;;4.10;;
651;SDS011;310;48.490;9.200;2023-08-20T01:00:04;110.87;;;3.40;;
651;SDS011;310;48.490;9.200;2023-08-20T01:02:37;111.93;;;4.23;;
651;SDS011;310;48.490;9.200;2023-08-20T01:05:03;110.77;;;3.27;;
651;SDS011;310;48.490;9.200;2023-08-20T01:10:30;111.10;;;3.63;;
651;SDS011;310;48.490;9.200;2023-08-20T01:13:04;111.80;;;4.03;;
651;SDS011;310;48.490;9.200;2023-08-20T01:15:32;111.50;;;3.90;;
651;SDS011;310;48.490;9.200;2023-08-20T01:17:58;112.07;;;3.97;;
651;SDS011;310;48.490;9.200;2023-08-20T01:20:25;110.80;;;3.37;;
651;SDS011;310;48.490;9.200;2023-08-20T01:23:00;110.60;;;3.47;;
651;SDS011;310;48.490;9.200;2023-08-20T01:28:45;111.27;;;3.77;;
651;SDS011;310;48.490;9.200;2023-08-20T01:31:11;110.40;;;3.20;;
651;SDS011;310;48.490;9.200;2023-08-20T01:33:37;111.03;;;3.63;;
651;SDS011;310;48.490;9.200;2023-08-20T01:36:03;110.97;;;3.53;;
651;SDS011;310;48.490;9.200;2023-08-20T01:38:34;111.27;;;3.67;;
651;SDS011;310;48.490;9.200;2023-08-20T01:41:00;111.80;;;3.73;;
651;SDS011;310;48.490;9.200;2023-08-20T01:43:26;114.10;;;4.23;;
651;SDS011;310;48.490;9.200;2023-08-20T01:45:52;111.27;;;3.33;;
651;SDS011;310;48.490;9.200;2023-08-20T01:48:18;111.57;;;3.27;;
651;SDS011;310;48.490;9.200;2023-08-20T01:50:43;110.67;;;3.33;;
651;SDS011;310;48.490;9.200;2023-08-20T01:53:10;111.90;;;3.90;;
651;SDS011;310;48.490;9.200;2023-08-20T01:55:36;111.87;;;3.73;;
651;SDS011;310;48.490;9.200;2023-08-20T01:58:02;111.97;;;3.73;;
651;SDS011;310;48.490;9.200;2023-08-20T02:00:28;112.53;;;3.53;;
651;SDS011;310;48.490;9.200;2023-08-20T02:02:55;110.73;;;3.40;;
651;SDS011;310;48.490;9.200;2023-08-20T02:05:21;111.90;;;3.60;;
651;SDS011;310;48.490;9.200;2023-08-20T02:07:47;110.70;;;3.30;;
651;SDS011;310;48.490;9.200;2023-08-20T02:10:12;110.47;;;3.17;;
651;SDS011;310;48.490;9.200;2023-08-20T02:12:39;111.70;;;3.80;;
651;SDS011;310;48.490;9.200;2023-08-20T02:15:05;111.27;;;3.80;;
651;SDS011;310;48.490;9.200;2023-08-20T02:17:32;110.37;;;3.10;;
651;SDS011;310;48.490;9.200;2023-08-20T02:19:57;111.10;;;3.50;;
651;SDS011;310;48.490;9.200;2023-08-20T02:22:23;111.60;;;3.60;;
651;SDS011;310;48.490;9.200;2023-08-20T02:24:48;111.67;;;3.70;;
651;SDS011;310;48.490;9.200;2023-08-20T02:27:14;111.67;;;3.60;;
651;SDS011;310;48.490;9.200;2023-08-20T02:29:39;112.97;;;4.57;;
651;SDS011;310;48.490;9.200;2023-08-20T02:32:05;110.90;;;3.23;;
651;SDS011;310;48.490;9.200;2023-08-20T02:34:30;111.40;;;4.00;;
651;SDS011;310;48.490;9.200;2023-08-20T02:36:56;113.50;;;3.83;;
651;SDS011;310;48.490;9.200;2023-08-20T02:39:22;110.80;;;3.33;;
651;SDS011;310;48.490;9.200;2023-08-20T02:41:49;111.07;;;3.30;;
651;SDS011;310;48.490;9.200;2023-08-20T02:44:14;110.87;;;3.47;;
651;SDS011;310;48.490;9.200;2023-08-20T02:46:40;111.20;;;3.40;;
651;SDS011;310;48.490;9.200;2023-08-20T02:49:06;115.17;;;4.77;;
651;SDS011;310;48.490;9.200;2023-08-20T02:51:31;111.03;;;3.30;;
651;SDS011;310;48.490;9.200;2023-08-20T02:53:57;112.40;;;3.73;;
651;SDS011;310;48.490;9.200;2023-08-20T02:56:22;114.37;;;4.20;;
651;SDS011;310;48.490;9.200;2023-08-20T02:58:48;110.80;;;3.40;;
651;SDS011;310;48.490;9.200;2023-08-20T03:01:17;111.90;;;3.97;;
651;SDS011;310;48.490;9.200;2023-08-20T03:03:44;111.97;;;3.77;;
651;SDS011;310;48.490;9.200;2023-08-20T03:06:09;110.90;;;3.47;;
651;SDS011;310;48.490;9.200;2023-08-20T03:08:35;112.80;;;4.20;;
651;SDS011;310;48.490;9.200;2023-08-20T03:11:00;111.37;;;3.57;;
651;SDS011;310;48.490;9.200;2023-08-20T03:13:26;112.17;;;3.77;;
651;SDS011;310;48.490;9.200;2023-08-20T03:15:52;111.20;;;3.47;;
651;SDS011;310;48.490;9.200;2023-08-20T03:18:17;111.93;;;3.77;;
651;SDS011;310;48.490;9.200;2023-08-20T03:20:43;111.67;;;3.47;;
651;SDS011;310;48.490;9.200;2023-08-20T03:23:08;120.80;;;4.33;;
651;SDS011;310;48.490;9.200;2023-08-20T03:25:34;112.67;;;3.80;;
651;SDS011;310;48.490;9.200;2023-08-20T03:27:59;111.77;;;3.80;;
651;SDS011;310;48.490;9.200;2023-08-20T03:30:25;110.77;;;3.20;;
651;SDS011;310;48.490;9.200;2023-08-20T03:32:50;110.80;;;3.20;;
651;SDS011;310;48.490;9.200;2023-08-20T03:35:16;112.70;;;4.40;;
651;SDS011;310;48.490;9.200;2023-08-20T03:37:41;112.50;;;4.43;;
651;SDS011;310;48.490;9.200;2023-08-20T03:40:07;112.10;;;4.10;;
651;SDS011;310;48.490;9.200;2023-08-20T03:42:33;114.30;;;3.93;;
651;SDS011;310;48.490;9.200;2023-08-20T03:44:58;111.47;;;3.70;;
651;SDS011;310;48.490;9.200;2023-08-20T03:47:24;111.00;;;3.70;;
651;SDS011;310;48.490;9.200;2023-08-20T03:49:49;110.37;;;3.03;;
651;SDS011;310;48.490;9.200;2023-08-20T03:52:15;110.70;;;3.30;;
651;SDS011;310;48.490;9.200;2023-08-20T03:54:41;112.87;;;3.93;;
651;SDS011;310;48.490;9.200;2023-08-20T03:57:06;111.17;;;3.40;;
651;SDS011;310;48.490;9.200;2023-08-20T03:59:32;111.03;;;3.27;;
651;SDS011;310;48.490;9.200;2023-08-20T04:01:57;111.33;;;3.80;;
651;SDS011;310;48.490;9.200;2023-08-20T04:04:23;111.07;;;3.10;;
651;SDS011;310;48.490;9.200;2023-08-20T04:06:49;111.60;;;3.87;;
651;SDS011;310;48.490;9.200;2023-08-20T04:09:15;110.50;;;3.20;;
651;SDS011;310;48.490;9.200;2023-08-20T04:11:41;111.87;;;3.90;;
651;SDS011;310;48.490;9.200;2023-08-20T04:14:07;111.40;;;3.57;;
651;SDS011;310;48.490;9.200;2023-08-20T04:16:33;113.13;;;3.60;;
651;SDS011;310;48.490;9.200;2023-08-20T04:18:58;120.60;;;4.87;;
651;SDS011;310;48.490;9.200;2023-08-20T04:21:24;111.63;;;3.77;;
651;SDS011;310;48.490;9.200;2023-08-20T04:23:50;111.57;;;3.80;;
651;SDS011;310;48.490;9.200;2023-08-20T04:26:15;110.93;;;3.53;;
651;SDS011;310;48.490;9.200;2023-08-20T04:28:41;110.70;;;3.23;;
651;SDS011;310;48.490;9.200;2023-08-20T04:31:06;110.87;;;3.27;;
651;SDS011;310;48.490;9.200;2023-08-20T04:33:32;110.80;;;3.13;;
651;SDS011;310;48.490;9.200;2023-08-20T04:35:57;111.57;;;3.80;;
651;SDS011;310;48.490;9.200;2023-08-20T04:38:23;110.93;;;3.60;;
651;SDS011;310;48.490;9.200;2023-08-20T04:40:48;111.17;;;3.53;;
651;SDS011;310;48.490;9.200;2023-08-20T04:43:14;110.90;;;3.20;;
651;SDS011;310;48.490;9.200;2023-08-20T04:45:40;111.03;;;3.30;;
651;SDS011;310;48.490;9.200;2023-08-20T04:48:06;111.23;;;3.60;;
651;SDS011;310;48.490;9.200;2023-08-20T04:50:33;112.07;;;4.13;;
651;SDS011;310;48.490;9.200;2023-08-20T04:52:58;112.00;;;3.60;;
651;SDS011;310;48.490;9.200;2023-08-20T04:55:25;111.20;;;3.70;;
651;SDS011;310;48.490;9.200;2023-08-20T04:57:51;111.30;;;3.80;;
651;SDS011;310;48.490;9.200;2023-08-20T05:00:17;111.20;;;3.70;;
651;SDS011;310;48.490;9.200;2023-08-20T05:02:42;111.27;;;3.50;;
651;SDS011;310;48.490;9.200;2023-08-20T05:05:08;111.77;;;3.83;;
651;SDS011;310;48.490;9.200;2023-08-20T05:07:35;111.87;;;3.80;;
651;SDS011;310;48.490;9.200;2023-08-20T05:10:00;111.27;;;3.43;;
651;SDS011;310;48.490;9.200;2023-08-20T05:12:27;111.50;;;3.90;;
651;SDS011;310;48.490;9.200;2023-08-20T05:14:53;110.77;;;3.30;;
651;SDS011;310;48.490;9.200;2023-08-20T05:17:18;111.00;;;3.33;;
651;SDS011;310;48.490;9.200;2023-08-20T05:19:44;111.50;;;3.37;;
651;SDS011;310;48.490;9.200;2023-08-20T05:22:10;111.80;;;3.60;;
651;SDS011;310;48.490;9.200;2023-08-20T05:24:36;111.70;;;3.57;;
651;SDS011;310;48.490;9.200;2023-08-20T05:29:36;111.20;;;3.67;;
651;SDS011;310;48.490;9.200;2023-08-20T05:32:03;111.50;;;3.63;;
651;SDS011;310;48.490;9.200;2023-08-20T05:34:29;111.60;;;3.80;;
651;SDS011;310;48.490;9.200;2023-08-20T05:36:54;111.67;;;3.87;;
651;SDS011;310;48.490;9.200;2023-08-20T05:39:20;110.60;;;3.10;;
651;SDS011;310;48.490;9.200;2023-08-20T05:41:45;111.17;;;3.63;;
651;SDS011;310;48.490;9.200;2023-08-20T05:44:11;111.70;;;3.70;;
651;SDS011;310;48.490;9.200;2023-08-20T05:46:37;112.10;;;3.93;;
651;SDS011;310;48.490;9.200;2023-08-20T05:49:02;112.57;;;3.87;;
651;SDS011;310;48.490;9.200;2023-08-20T05:51:28;111.07;;;3.70;;
651;SDS011;310;48.490;9.200;2023-08-20T05:53:53;111.67;;;3.70;;
651;SDS011;310;48.490;9.200;2023-08-20T05:56:19;112.07;;;3.63;;
651;SDS011;310;48.490;9.200;2023-08-20T05:58:44;111.23;;;3.60;;
651;SDS011;310;48.490;9.200;2023-08-20T06:01:10;111.50;;;3.57;;
651;SDS011;310;48.490;9.200;2023-08-20T06:03:36;111.50;;;3.97;;
651;SDS011;310;48.490;9.200;2023-08-20T06:06:01;112.17;;;3.60;;
651;SDS011;310;48.490;9.200;2023-08-20T06:08:27;112.37;;;3.93;;
651;SDS011;310;48.490;9.200;2023-08-20T06:10:53;112.07;;;4.23;;
651;SDS011;310;48.490;9.200;2023-08-20T06:13:18;111.27;;;3.73;;
651;SDS011;310;48.490;9.200;2023-08-20T06:15:44;112.07;;;3.67;;
651;SDS011;310;48.490;9.200;2023-08-20T06:18:09;112.70;;;4.40;;
651;SDS011;310;48.490;9.200;2023-08-20T06:20:35;111.30;;;3.67;;
651;SDS011;310;48.490;9.200;2023-08-20T06:23:00;110.77;;;3.50;;
651;SDS011;310;48.490;9.200;2023-08-20T06:25:26;113.07;;;3.90;;
651;SDS011;310;48.490;9.200;2023-08-20T06:27:52;112.10;;;4.00;;
651;SDS011;310;48.490;9.200;2023-08-20T06:30:17;111.37;;;3.90;;
651;SDS011;310;48.490;9.200;2023-08-20T06:32:46;111.10;;;3.27;;
651;SDS011;310;48.490;9.200;2023-08-20T06:35:11;112.20;;;3.80;;
651;SDS011;310;48.490;9.200;2023-08-20T06:37:40;112.20;;;4.07;;
651;SDS011;310;48.490;9.200;2023-08-20T06:40:06;110.00;;;3.30;;
651;SDS011;310;48.490;9.200;2023-08-20T06:42:32;111.60;;;4.00;;
651;SDS011;310;48.490;9.200;2023-08-20T06:44:58;111.07;;;3.63;;
651;SDS011;310;48.490;9.200;2023-08-20T06:47:23;111.30;;;3.80;;
651;SDS011;310;48.490;9.200;2023-08-20T06:49:49;111.90;;;4.00;;
651;SDS011;310;48.490;9.200;2023-08-20T06:52:15;111.97;;;3.63;;
651;SDS011;310;48.490;9.200;2023-08-20T06:54:41;112.80;;;4.27;;
651;SDS011;310;48.490;9.200;2023-08-20T06:57:07;111.07;;;3.47;;
651;SDS011;310;48.490;9.200;2023-08-20T06:59:32;111.37;;;3.73;;
651;SDS011;310;48.490;9.200;2023-08-20T07:01:58;111.47;;;3.60;;
651;SDS011;310;48.490;9.200;2023-08-20T07:04:23;111.87;;;3.93;;
651;SDS011;310;48.490;9.200;2023-08-20T07:06:49;111.47;;;3.70;;
651;SDS011;310;48.490;9.200;2023-08-20T07:09:15;112.40;;;3.87;;
651;SDS011;310;48.490;9.200;2023-08-20T07:11:41;111.93;;;4.33;;
651;SDS011;310;48.490;9.200;2023-08-20T07:14:06;111.47;;;4.00;;
651;SDS011;310;48.490;9.200;2023-08-20T07:16:32;111.57;;;4.30;;
651;SDS011;310;48.490;9.200;2023-08-20T07:18:57;111.40;;;3.90;;
651;SDS011;310;48.490;9.200;2023-08-20T07:21:23;110.77;;;3.33;;
651;SDS011;310;48.490;9.200;2023-08-20T07:23:50;111.77;;;3.77;;
651;SDS011;310;48.490;9.200;2023-08-20T07:26:15;111.70;;;3.80;;
651;SDS011;310;48.490;9.200;2023-08-20T07:28:41;111.63;;;3.63;;
651;SDS011;310;48.490;9.200;2023-08-20T07:31:22;110.47;;;3.23;;
651;SDS011;310;48.490;9.200;2023-08-20T07:33:52;110.27;;;3.50;;
651;SDS011;310;48.490;9.200;2023-08-20T07:36:20;109.97;;;3.13;;
651;SDS011;310;48.490;9.200;2023-08-20T07:38:50;110.13;;;3.13;;
651;SDS011;310;48.490;9.200;2023-08-20T07:41:16;111.40;;;3.60;;
651;SDS011;310;48.490;9.200;2023-08-20T07:43:42;111.00;;;3.60;;
651;SDS011;310;48.490;9.200;2023-08-20T07:46:08;111.57;;;3.87;;
651;SDS011;310;48.490;9.200;2023-08-20T07:48:35;110.60;;;3.63;;
651;SDS011;310;48.490;9.200;2023-08-20T07:51:01;113.20;;;3.70;;
651;SDS011;310;48.490;9.200;2023-08-20T07:53:27;110.77;;;3.77;;
651;SDS011;310;48.490;9.200;2023-08-20T07:55:53;110.83;;;3.60;;
651;SDS011;310;48.490;9.200;2023-08-20T07:58:19;111.27;;;3.97;;
651;SDS011;310;48.490;9.200;2023-08-20T08:00:45;110.70;;;3.70;;
651;SDS011;310;48.490;9.200;2023-08-20T08:03:11;111.77;;;4.10;;
651;SDS011;310;48.490;9.200;2023-08-20T08:05:36;110.63;;;3.40;;
651;SDS011;310;48.490;9.200;2023-08-20T08:08:02;114.50;;;4.07;;
651;SDS011;310;48.490;9.200;2023-08-20T08:10:28;112.50;;;4.07;;
651;SDS011;310;48.490;9.200;2023-08-20T08:12:54;110.57;;;3.60;;
651;SDS011;310;48.490;9.200;2023-08-20T08:15:20;112.13;;;4.37;;
651;SDS011;310;48.490;9.200;2023-08-20T08:17:45;117.20;;;4.33;;
651;SDS011;310;48.490;9.200;2023-08-20T08:20:11;109.63;;;3.33;;
651;SDS011;310;48.490;9.200;2023-08-20T08:22:36;110.57;;;4.20;;
651;SDS011;310;48.490;9.200;2023-08-20T08:25:02;109.53;;;3.57;;
651;SDS011;310;48.490;9.200;2023-08-20T08:27:28;110.30;;;3.40;;
651;SDS011;310;48.490;9.200;2023-08-20T08:29:53;110.40;;;3.43;;
651;SDS011;310;48.490;9.200;2023-08-20T08:32:19;109.87;;;3.40;;
651;SDS011;310;48.490;9.200;2023-08-20T08:34:44;110.93;;;4.10;;
651;SDS011;310;48.490;9.200;2023-08-20T08:37:10;110.07;;;3.67;;
651;SDS011;310;48.490;9.200;2023-08-20T08:39:36;110.20;;;3.67;;
651;SDS011;310;48.490;9.200;2023-08-20T08:42:02;112.23;;;3.60;;
651;SDS011;310;48.490;9.200;2023-08-20T08:44:30;110.27;;;3.80;;
651;SDS011;310;48.490;9.200;2023-08-20T08:47:02;114.00;;;3.80;;
651;SDS011;310;48.490;9.200;2023-08-20T08:49:32;110.17;;;3.77;;
651;SDS011;310;48.490;9.200;2023-08-20T08:51:58;110.30;;;3.70;;
651;SDS011;310;48.490;9.200;2023-08-20T08:54:26;110.60;;;3.53;;
651;SDS011;310;48.490;9.200;2023-08-20T08:56:52;110.57;;;3.93;;
651;SDS011;310;48.490;9.200;2023-08-20T08:59:18;110.37;;;3.47;;
651;SDS011;310;48.490;9.200;2023-08-20T09:01:44;110.30;;;3.60;;
651;SDS011;310;48.490;9.200;2023-08-20T09:04:10;111.70;;;4.20;;
651;SDS011;310;48.490;9.200;2023-08-20T09:06:45;110.00;;;3.53;;
651;SDS011;310;48.490;9.200;2023-08-20T09:09:18;109.93;;;3.63;;
651;SDS011;310;48.490;9.200;2023-08-20T09:11:44;112.80;;;4.83;;
651;SDS011;310;48.490;9.200;2023-08-20T09:14:20;110.07;;;3.70;;
651;SDS011;310;48.490;9.200;2023-08-20T09:16:59;109.60;;;3.50;;
651;SDS011;310;48.490;9.200;2023-08-20T09:19:30;109.40;;;3.40;;
651;SDS011;310;48.490;9.200;2023-08-20T09:22:00;109.67;;;3.77;;
651;SDS011;310;48.490;9.200;2023-08-20T09:24:26;109.63;;;3.30;;
651;SDS011;310;48.490;9.200;2023-08-20T09:27:11;111.23;;;3.87;;
651;SDS011;310;48.490;9.200;2023-08-20T09:32:14;111.27;;;4.23;;
651;SDS011;310;48.490;9.200;2023-08-20T09:34:41;111.60;;;3.83;;
651;SDS011;310;48.490;9.200;2023-08-20T09:37:10;110.67;;;3.70;;
651;SDS011;310;48.490;9.200;2023-08-20T09:39:38;108.10;;;3.07;;
651;SDS011;310;48.490;9.200;2023-08-20T09:42:04;108.83;;;3.37;;
651;SDS011;310;48.490;9.200;2023-08-20T09:44:34;109.70;;;3.80;;
651;SDS011;310;48.490;9.200;2023-08-20T09:47:22;109.07;;;3.20;;
651;SDS011;310;48.490;9.200;2023-08-20T09:49:49;110.67;;;3.70;;
651;SDS011;310;48.490;9.200;2023-08-20T09:52:20;109.10;;;3.40;;
651;SDS011;310;48.490;9.200;2023-08-20T09:55:04;109.60;;;3.67;;
651;SDS011;310;48.490;9.200;2023-08-20T10:00:03;107.90;;;2.90;;
651;SDS011;310;48.490;9.200;2023-08-20T10:02:39;109.00;;;3.40;;
651;SDS011;310;48.490;9.200;2023-08-20T10:05:05;108.83;;;3.60;;
651;SDS011;310;48.490;9.200;2023-08-20T10:07:32;109.80;;;3.60;;
651;SDS011;310;48.490;9.200;2023-08-20T10:10:00;109.43;;;3.90;;
651;SDS011;310;48.490;9.200;2023-08-20T10:12:28;110.87;;;2.97;;
651;SDS011;310;48.490;9.200;2023-08-20T10:14:55;108.00;;;3.23;;
651;SDS011;310;48.490;9.200;2023-08-20T10:17:22;108.77;;;3.63;;
651;SDS011;310;48.490;9.200;2023-08-20T10:19:53;109.90;;;4.60;;
651;SDS011;310;48.490;9.200;2023-08-20T10:22:19;107.47;;;3.23;;
651;SDS011;310;48.490;9.200;2023-08-20T10:24:52;107.50;;;3.10;;
651;SDS011;310;48.490;9.200;2023-08-20T10:27:25;111.77;;;3.70;;
651;SDS011;310;48.490;9.200;2023-08-20T10:29:54;107.57;;;3.23;;
651;SDS011;310;48.490;9.200;2023-08-20T10:32:20;108.63;;;3.60;;
651;SDS011;310;48.490;9.200;2023-08-20T10:35:06;107.07;;;2.93;;
651;SDS011;310;48.490;9.200;2023-08-20T10:37:33;107.07;;;3.07;;
651;SDS011;310;48.490;9.200;2023-08-20T10:40:01;108.27;;;3.30;;
651;SDS011;310;48.490;9.200;2023-08-20T10:42:27;106.60;;;2.90;;
651;SDS011;310;48.490;9.200;2023-08-20T10:45:00;110.37;;;3.60;;
651;SDS011;310;48.490;9.200;2023-08-20T10:47:36;107.03;;;3.13;;
651;SDS011;310;48.490;9.200;2023-08-20T10:50:04;107.43;;;3.37;;
651;SDS011;310;48.490;9.200;2023-08-20T10:52:33;108.50;;;3.27;;
651;SDS011;310;48.490;9.200;2023-08-20T10:55:04;107.50;;;3.20;;
651;SDS011;310;48.490;9.200;2023-08-20T10:57:34;106.90;;;3.00;;
651;SDS011;310;48.490;9.200;2023-08-20T11:00:02;106.47;;;3.03;;
651;SDS011;310;48.490;9.200;2023-08-20T11:02:37;107.00;;;3.20;;
651;SDS011;310;48.490;9.200;2023-08-20T11:05:04;106.40;;;3.03;;
651;SDS011;310;48.490;9.200;2023-08-20T11:07:40;106.40;;;3.10;;
651;SDS011;310;48.490;9.200;2023-08-20T11:10:06;106.23;;;3.00;;
651;SDS011;310;48.490;9.200;2023-08-20T11:12:33;108.87;;;3.30;;
651;SDS011;310;48.490;9.200;2023-08-20T11:15:01;108.30;;;4.10;;
651;SDS011;310;48.490;9.200;2023-08-20T11:17:27;107.47;;;3.40;;
651;SDS011;310;48.490;9.200;2023-08-20T11:19:54;107.03;;;3.47;;
651;SDS011;310;48.490;9.200;2023-08-20T11:22:19;106.10;;;3.10;;
651;SDS011;310;48.490;9.200;2023-08-20T11:24:45;106.17;;;2.93;;
651;SDS011;310;48.490;9.200;2023-08-20T11:27:11;106.00;;;3.10;;
651;SDS011;310;48.490;9.200;2023-08-20T11:29:37;106.97;;;3.50;;
651;SDS011;310;48.490;9.200;2023-08-20T11:32:07;105.33;;;2.70;;
651;SDS011;310;48.490;9.200;2023-08-20T11:34:34;105.70;;;3.23;;
651;SDS011;310;48.490;9.200;2023-08-20T11:37:00;107.60;;;3.57;;
651;SDS011;310;48.490;9.200;2023-08-20T11:39:28;109.87;;;3.60;;
651;SDS011;310;48.490;9.200;2023-08-20T11:41:54;105.80;;;3.03;;
651;SDS011;310;48.490;9.200;2023-08-20T11:44:20;116.23;;;3.40;;
651;SDS011;310;48.490;9.200;2023-08-20T11:46:46;104.70;;;2.87;;
651;SDS011;310;48.490;9.200;2023-08-20T11:49:12;104.90;;;2.83;;
651;SDS011;310;48.490;9.200;2023-08-20T11:51:40;103.97;;;2.60;;
651;SDS011;310;48.490;9.200;2023-08-20T11:54:07;105.27;;;3.20;;
651;SDS011;310;48.490;9.200;2023-08-20T11:56:35;104.97;;;3.23;;
651;SDS011;310;48.490;9.200;2023-08-20T11:59:03;104.40;;;2.57;;
651;SDS011;310;48.490;9.200;2023-08-20T12:01:32;103.70;;;2.83;;
651;SDS011;310;48.490;9.200;2023-08-20T12:04:02;103.57;;;2.83;;
651;SDS011;310;48.490;9.200;2023-08-20T12:06:29;102.60;;;2.40;;
651;SDS011;310;48.490;9.200;2023-08-20T12:08:56;102.47;;;2.80;;
651;SDS011;310;48.490;9.200;2023-08-20T12:11:26;102.60;;;2.73;;
651;SDS011;310;48.490;9.200;2023-08-20T12:13:52;101.80;;;2.47;;
651;SDS011;310;48.490;9.200;2023-08-20T12:16:18;117.03;;;3.03;;
651;SDS011;310;48.490;9.200;2023-08-20T12:18:45;102.47;;;2.80;;
651;SDS011;310;48.490;9.200;2023-08-20T12:21:11;101.97;;;2.70;;
651;SDS011;310;48.490;9.200;2023-08-20T12:23:37;101.60;;;2.50;;
651;SDS011;310;48.490;9.200;2023-08-20T12:26:02;101.77;;;2.53;;
651;SDS011;310;48.490;9.200;2023-08-20T12:28:28;101.37;;;2.70;;
651;SDS011;310;48.490;9.200;2023-08-20T12:30:54;101.07;;;2.53;;
651;SDS011;310;48.490;9.200;2023-08-20T12:33:20;102.37;;;3.40;;
651;SDS011;310;48.490;9.200;2023-08-20T12:35:46;100.60;;;2.40;;
651;SDS011;310;48.490;9.200;2023-08-20T12:38:12;100.80;;;2.50;;
651;SDS011;310;48.490;9.200;2023-08-20T12:40:37;101.13;;;2.37;;
651;SDS011;310;48.490;9.200;2023-08-20T12:43:03;100.40;;;2.43;;
651;SDS011;310;48.490;9.200;2023-08-20T12:45:29;99.90;;;2.37;;
651;SDS011;310;48.490;9.200;2023-08-20T12:47:55;99.67;;;2.30;;
651;SDS011;310;48.490;9.200;2023-08-20T12:50:21;99.60;;;2.50;;
651;SDS011;310;48.490;9.200;2023-08-20T12:52:46;101.27;;;3.37;;
651;SDS011;310;48.490;9.200;2023-08-20T12:55:14;99.57;;;2.60;;
651;SDS011;310;48.490;9.200;2023-08-20T12:57:51;99.43;;;2.30;;
651;SDS011;310;48.490;9.200;2023-08-20T13:00:22;100.50;;;2.70;;
651;SDS011;310;48.490;9.200;2023-08-20T13:02:50;99.77;;;2.47;;
651;SDS011;310;48.490;9.200;2023-08-20T13:05:16;100.00;;;2.53;;
651;SDS011;310;48.490;9.200;2023-08-20T13:07:42;102.37;;;2.90;;
651;SDS011;310;48.490;9.200;2023-08-20T13:10:08;100.10;;;2.37;;
651;SDS011;310;48.490;9.200;2023-08-20T13:12:34;100.00;;;2.93;;
651;SDS011;310;48.490;9.200;2023-08-20T13:15:00;100.30;;;2.60;;
651;SDS011;310;48.490;9.200;2023-08-20T13:17:27;100.23;;;2.70;;
651;SDS011;310;48.490;9.200;2023-08-20T13:19:52;102.10;;;3.23;;
651;SDS011;310;48.490;9.200;2023-08-20T13:22:18;100.27;;;2.40;;
651;SDS011;310;48.490;9.200;2023-08-20T13:24:43;100.60;;;2.60;;
651;SDS011;310;48.490;9.200;2023-08-20T13:27:09;100.63;;;2.63;;
651;SDS011;310;48.490;9.200;2023-08-20T13:29:34;100.57;;;2.30;;
651;SDS011;310;48.490;9.200;2023-08-20T13:32:00;101.90;;;3.10;;
651;SDS011;310;48.490;9.200;2023-08-20T13:34:26;101.50;;;2.90;;
651;SDS011;310;48.490;9.200;2023-08-20T13:36:51;101.37;;;2.80;;
651;SDS011;310;48.490;9.200;2023-08-20T13:39:17;100.67;;;2.40;;
651;SDS011;310;48.490;9.200;2023-08-20T13:41:43;103.27;;;3.20;;
651;SDS011;310;48.490;9.200;2023-08-20T13:44:09;103.17;;;3.73;;
651;SDS011;310;48.490;9.200;2023-08-20T13:46:35;108.07;;;3.10;;
651;SDS011;310;48.490;9.200;2023-08-20T13:49:01;103.07;;;3.57;;
651;SDS011;310;48.490;9.200;2023-08-20T13:51:28;101.87;;;2.87;;
651;SDS011;310;48.490;9.200;2023-08-20T13:53:54;101.10;;;2.53;;
651;SDS011;310;48.490;9.200;2023-08-20T13:56:19;101.30;;;2.57;;
651;SDS011;310;48.490;9.200;2023-08-20T13:58:45;102.27;;;3.00;;
651;SDS011;310;48.490;9.200;2023-08-20T14:01:11;103.40;;;2.73;;
651;SDS011;310;48.490;9.200;2023-08-20T14:03:38;101.30;;;2.60;;
651;SDS011;310;48.490;9.200;2023-08-20T14:06:04;102.70;;;3.10;;
651;SDS011;310;48.490;9.200;2023-08-20T14:08:30;101.07;;;2.40;;
651;SDS011;310;48.490;9.200;2023-08-20T14:10:56;101.20;;;2.40;;
651;SDS011;310;48.490;9.200;2023-08-20T14:13:21;101.37;;;2.70;;
651;SDS011;310;48.490;9.200;2023-08-20T14:15:47;101.37;;;2.50;;
651;SDS011;310;48.490;9.200;2023-08-20T14:18:12;104.80;;;3.10;;
651;SDS011;310;48.490;9.200;2023-08-20T14:20:38;102.00;;;2.90;;
651;SDS011;310;48.490;9.200;2023-08-20T14:23:03;101.90;;;2.50;;
651;SDS011;310;48.490;9.200;2023-08-20T14:25:29;101.70;;;2.60;;
651;SDS011;310;48.490;9.200;2023-08-20T14:27:55;102.50;;;3.00;;
651;SDS011;310;48.490;9.200;2023-08-20T14:30:20;101.93;;;2.90;;
651;SDS011;310;48.490;9.200;2023-08-20T14:32:46;102.00;;;2.70;;
651;SDS011;310;48.490;9.200;2023-08-20T14:35:12;101.80;;;2.57;;
651;SDS011;310;48.490;9.200;2023-08-20T14:37:37;102.17;;;2.70;;
651;SDS011;310;48.490;9.200;2023-08-20T14:40:03;101.67;;;2.70;;
651;SDS011;310;48.490;9.200;2023-08-20T14:42:32;103.43;;;3.20;;
651;SDS011;310;48.490;9.200;2023-08-20T14:44:58;101.97;;;2.60;;
651;SDS011;310;48.490;9.200;2023-08-20T14:47:24;101.17;;;2.47;;
651;SDS011;310;48.490;9.200;2023-08-20T14:49:49;101.67;;;2.80;;
651;SDS011;310;48.490;9.200;2023-08-20T14:52:15;103.13;;;3.43;;
651;SDS011;310;48.490;9.200;2023-08-20T14:54:40;101.90;;;2.77;;
651;SDS011;310;48.490;9.200;2023-08-20T14:57:07;101.53;;;2.60;;
651;SDS011;310;48.490;9.200;2023-08-20T14:59:33;102.40;;;2.77;;
651;SDS011;310;48.490;9.200;2023-08-20T15:01:59;102.67;;;2.73;;
651;SDS011;310;48.490;9.200;2023-08-20T15:04:24;102.73;;;3.03;;
651;SDS011;310;48.490;9.200;2023-08-20T15:06:50;102.00;;;2.60;;
651;SDS011;310;48.490;9.200;2023-08-20T15:09:16;102.00;;;2.87;;
651;SDS011;310;48.490;9.200;2023-08-20T15:11:42;101.80;;;2.63;;
651;SDS011;310;48.490;9.200;2023-08-20T15:14:07;102.30;;;2.93;;
651;SDS011;310;48.490;9.200;2023-08-20T15:16:33;103.90;;;3.07;;
651;SDS011;310;48.490;9.200;2023-08-20T15:18:59;102.20;;;2.80;;
651;SDS011;310;48.490;9.200;2023-08-20T15:21:24;103.27;;;3.03;;
651;SDS011;310;48.490;9.200;2023-08-20T15:23:51;102.83;;;3.03;;
651;SDS011;310;48.490;9.200;2023-08-20T15:26:16;101.67;;;2.53;;